createdAt,value
2022-12-11T08:11:26.546Z,20.90
2022-12-11T08:13:56.278Z,23.10
2022-12-11T08:16:40.972Z,30.70
2022-12-11T08:19:11.097Z,26.30
2022-12-11T08:21:40.605Z,31.60
2022-12-11T08:24:23.359Z,27.80
2022-12-11T08:26:52.059Z,24.00
2022-12-11T08:29:20.697Z,27.70
2022-12-11T08:31:50.471Z,24.70
2022-12-11T08:34:19.290Z,26.10
2022-12-11T08:36:48.347Z,21.40
2022-12-11T08:39:17.201Z,22.30
2022-12-11T08:41:46.014Z,24.30
2022-12-11T08:44:16.960Z,17.90
2022-12-11T08:46:46.799Z,19.60
2022-12-11T08:49:15.870Z,15.00
2022-12-11T08:51:44.571Z,17.40
2022-12-11T08:54:13.220Z,16.50
2022-12-11T08:56:41.746Z,27.90
2022-12-11T08:59:25.905Z,23.70
2022-12-11T09:02:13.064Z,19.50
2022-12-11T09:04:55.338Z,24.50
2022-12-11T09:07:39.749Z,16.20
2022-12-11T09:10:10.579Z,19.80
2022-12-11T09:12:39.562Z,24.60
2022-12-11T09:15:09.372Z,31.20
2022-12-11T09:17:39.221Z,21.80
2022-12-11T09:20:08.616Z,22.10
2022-12-11T09:22:51.208Z,20.00
2022-12-11T09:25:33.683Z,18.40
2022-12-11T09:28:17.123Z,22.20
2022-12-11T09:30:46.259Z,22.40
2022-12-11T09:33:15.315Z,29.00
2022-12-11T09:35:44.660Z,30.30
2022-12-11T09:38:13.627Z,26.70
2022-12-11T09:40:43.856Z,28.80
2022-12-11T09:43:41.937Z,34.00
2022-12-11T09:46:26.284Z,32.60
2022-12-11T09:48:56.312Z,28.70
2022-12-11T09:51:43.137Z,28.30
2022-12-11T09:54:14.687Z,27.70
2022-12-11T09:56:53.370Z,25.80
2022-12-11T09:59:38.558Z,25.10
2022-12-11T10:02:34.269Z,29.00
2022-12-11T10:05:19.150Z,27.50
2022-12-11T10:08:20.602Z,29.60
2022-12-11T10:10:49.505Z,29.50
2022-12-11T10:13:33.750Z,27.60
2022-12-11T10:16:44.831Z,31.00
2022-12-11T10:19:28.066Z,33.40
2022-12-11T10:21:58.342Z,24.20
2022-12-11T10:25:14.507Z,25.90
2022-12-11T10:27:45.005Z,18.70
2022-12-11T10:30:13.670Z,21.40
2022-12-11T10:33:13.185Z,19.50
2022-12-11T10:35:47.431Z,21.60
2022-12-11T10:38:34.736Z,21.30
2022-12-11T10:41:10.733Z,17.10
2022-12-11T10:43:46.208Z,25.80
2022-12-11T10:46:22.366Z,35.60
2022-12-11T10:48:56.973Z,30.30
2022-12-11T10:51:27.164Z,23.70
2022-12-11T10:54:04.020Z,25.00
2022-12-11T10:56:38.194Z,24.00
2022-12-11T10:59:07.623Z,24.10
2022-12-11T11:01:36.269Z,23.40
2022-12-11T11:04:14.424Z,27.60
2022-12-11T11:06:43.248Z,23.70
2022-12-11T11:09:34.356Z,22.00
2022-12-11T11:12:07.833Z,27.70
2022-12-11T11:15:17.747Z,29.00
2022-12-11T11:17:56.247Z,24.60
2022-12-11T11:20:29.715Z,29.00
2022-12-11T11:23:16.271Z,35.80
2022-12-11T11:26:01.015Z,29.40
2022-12-11T11:28:50.421Z,36.10
2022-12-11T11:31:36.464Z,33.70
2022-12-11T11:34:19.163Z,32.50
2022-12-11T11:36:58.462Z,34.80
2022-12-11T11:39:38.349Z,29.30
2022-12-11T11:42:11.086Z,30.80
2022-12-11T11:44:47.353Z,40.00
2022-12-11T11:47:30.945Z,33.80
2022-12-11T11:50:36.421Z,34.30
2022-12-11T11:53:29.134Z,33.90
2022-12-11T11:56:26.774Z,26.20
2022-12-11T11:59:21.118Z,32.20
2022-12-11T12:01:52.110Z,31.20
2022-12-11T12:04:20.773Z,27.60
2022-12-11T12:07:08.750Z,34.70
2022-12-11T12:09:54.426Z,33.10
2022-12-11T12:12:42.887Z,28.00
2022-12-11T12:15:21.185Z,31.00
2022-12-11T12:18:13.393Z,30.70
2022-12-11T12:21:17.976Z,28.80
2022-12-11T12:24:34.777Z,28.30
2022-12-11T12:27:52.210Z,24.00
2022-12-11T12:30:51.119Z,29.50
2022-12-11T12:33:38.651Z,37.40
2022-12-11T12:36:21.303Z,40.00
2022-12-11T12:39:20.045Z,37.90
2022-12-11T12:42:07.256Z,28.20
2022-12-11T12:44:55.903Z,40.80
2022-12-11T12:47:39.244Z,48.30
2022-12-11T12:50:18.484Z,31.70
2022-12-11T12:52:49.370Z,37.30
2022-12-11T12:55:29.976Z,30.20
2022-12-11T12:58:01.784Z,28.60
2022-12-11T13:00:44.834Z,34.80
2022-12-11T13:03:20.775Z,31.10
2022-12-11T13:06:08.250Z,32.70
2022-12-11T13:08:39.465Z,35.10
2022-12-11T13:11:33.376Z,30.30
2022-12-11T13:14:07.233Z,24.00
2022-12-11T13:16:51.854Z,25.40
2022-12-11T13:19:24.046Z,30.10
2022-12-11T13:21:56.281Z,24.80
2022-12-11T13:24:28.056Z,30.80
2022-12-11T13:26:57.040Z,33.10
2022-12-11T13:29:38.042Z,21.20
2022-12-11T13:32:10.309Z,26.00
2022-12-11T13:34:45.449Z,27.10
2022-12-11T13:37:39.956Z,30.60
2022-12-11T13:40:22.755Z,24.90
2022-12-11T13:42:55.043Z,23.10
2022-12-11T13:45:30.366Z,21.70
2022-12-11T13:48:00.505Z,28.80
2022-12-11T13:50:33.326Z,32.00
2022-12-11T13:53:04.183Z,23.00
2022-12-11T13:55:35.446Z,25.30
2022-12-11T13:58:20.729Z,23.40
2022-12-11T14:01:18.010Z,30.30
2022-12-11T14:03:59.736Z,37.30
2022-12-11T14:06:30.621Z,26.50
2022-12-11T14:09:02.136Z,28.00
2022-12-11T14:11:46.507Z,24.50
2022-12-11T14:14:51.735Z,24.10
2022-12-11T14:17:35.608Z,30.50
2022-12-11T14:20:22.535Z,32.00
2022-12-11T14:22:52.051Z,24.20
2022-12-11T14:25:25.973Z,25.80
2022-12-11T14:28:17.975Z,24.80
2022-12-11T14:30:52.693Z,22.90
2022-12-11T14:33:26.079Z,24.70
2022-12-11T14:35:56.526Z,30.60
2022-12-11T14:39:07.067Z,24.40
2022-12-11T14:41:42.392Z,21.50
2022-12-11T14:44:17.141Z,27.80
2022-12-11T14:47:04.443Z,33.30
2022-12-11T14:49:43.122Z,32.10
2022-12-11T14:52:33.487Z,29.70
2022-12-11T14:55:09.398Z,25.70
2022-12-11T14:57:43.739Z,23.20
2022-12-11T15:00:38.866Z,21.70
2022-12-11T15:03:22.599Z,20.10
2022-12-11T15:05:57.540Z,19.70
2022-12-11T15:08:28.879Z,25.00
2022-12-11T15:11:15.167Z,19.80
2022-12-11T15:14:01.281Z,20.00
2022-12-11T15:16:34.398Z,17.20
2022-12-11T15:19:35.521Z,23.60
2022-12-11T15:22:08.845Z,20.50
2022-12-11T15:24:41.475Z,26.00
2022-12-11T15:27:28.347Z,26.50
2022-12-11T15:29:57.725Z,24.50
2022-12-11T15:32:26.436Z,18.60
2022-12-11T15:34:58.109Z,20.80
2022-12-11T15:37:40.565Z,22.50
2022-12-11T15:40:23.913Z,15.70
2022-12-11T15:42:55.525Z,17.00
2022-12-11T15:45:37.921Z,20.90
2022-12-11T15:48:08.413Z,17.20
2022-12-11T15:53:28.532Z,22.50
2022-12-11T15:56:00.596Z,18.70
2022-12-11T15:58:29.470Z,15.80
2022-12-11T16:00:58.481Z,15.60
2022-12-11T16:03:27.919Z,18.50
2022-12-11T16:05:57.952Z,16.90
2022-12-11T16:08:26.994Z,21.90
2022-12-11T16:10:56.501Z,17.00
2022-12-11T16:13:39.072Z,20.70
2022-12-11T16:16:08.013Z,26.80
2022-12-11T16:18:37.170Z,22.10
2022-12-11T16:21:06.810Z,24.80
2022-12-11T16:23:35.871Z,18.50
2022-12-11T16:26:09.908Z,22.70
2022-12-11T16:28:38.576Z,18.80
2022-12-11T16:31:15.382Z,17.10
2022-12-11T16:33:44.362Z,14.00
2022-12-11T16:36:18.272Z,14.50
2022-12-11T16:38:53.798Z,15.10
2022-12-11T16:41:24.320Z,12.10
2022-12-11T16:44:06.951Z,13.60
2022-12-11T16:46:36.367Z,13.10
2022-12-11T16:49:06.037Z,15.90
2022-12-11T16:51:49.818Z,16.80
2022-12-11T16:54:19.077Z,17.10
2022-12-11T16:56:48.655Z,17.20
2022-12-11T16:59:36.638Z,22.10
2022-12-11T17:02:07.440Z,25.70
2022-12-11T17:04:38.208Z,20.20
2022-12-11T17:07:20.667Z,17.70
2022-12-11T17:09:49.907Z,18.10
2022-12-11T17:12:19.406Z,20.50
2022-12-11T17:14:48.501Z,18.90
2022-12-11T17:17:17.275Z,19.80
2022-12-11T17:19:46.396Z,23.80
2022-12-11T17:22:29.191Z,22.60
2022-12-11T17:25:12.121Z,24.70
2022-12-11T17:27:55.660Z,18.90
2022-12-11T17:30:24.672Z,23.60
2022-12-11T17:33:07.581Z,22.70
2022-12-11T17:35:50.254Z,30.00
2022-12-11T17:38:19.303Z,24.90
2022-12-11T17:41:06.911Z,22.60
2022-12-11T17:43:51.454Z,24.20
2022-12-11T17:46:21.557Z,23.50
2022-12-11T17:48:50.197Z,20.80
2022-12-11T17:51:32.911Z,25.90
2022-12-11T17:54:15.714Z,23.00
2022-12-11T17:56:44.709Z,26.30
2022-12-11T17:59:13.897Z,28.90
2022-12-11T18:01:43.885Z,31.00
2022-12-11T18:04:27.337Z,24.80
2022-12-11T18:06:57.293Z,31.40
2022-12-11T18:09:26.684Z,27.50
2022-12-11T18:11:55.747Z,31.60
2022-12-11T18:14:38.525Z,25.70
2022-12-11T18:17:08.008Z,27.20
2022-12-11T18:19:50.700Z,26.70
2022-12-11T18:22:19.862Z,25.60
2022-12-11T18:24:48.982Z,24.70
2022-12-11T18:27:31.245Z,26.50
2022-12-11T18:30:00.000Z,29.40
2022-12-11T18:32:29.715Z,35.10
2022-12-11T18:34:58.829Z,29.10
2022-12-11T18:37:28.269Z,32.70
2022-12-11T18:39:58.117Z,26.50
2022-12-11T18:42:40.373Z,25.90
2022-12-11T18:45:10.033Z,29.40
2022-12-11T18:47:53.033Z,35.00
2022-12-11T18:50:22.107Z,25.40
2022-12-11T18:52:55.091Z,29.30
2022-12-11T18:55:43.070Z,26.10
2022-12-11T18:58:13.684Z,30.30
2022-12-11T19:00:43.406Z,25.40
2022-12-11T19:03:25.795Z,24.30
2022-12-11T19:05:54.371Z,26.70
2022-12-11T19:08:23.969Z,22.00
2022-12-11T19:10:52.526Z,21.10
2022-12-11T19:13:21.362Z,29.70
2022-12-11T19:15:50.512Z,24.70
2022-12-11T19:18:19.145Z,24.50
2022-12-11T19:20:51.066Z,24.20
2022-12-11T19:23:23.513Z,21.60
2022-12-11T19:25:52.376Z,20.70
2022-12-11T19:28:34.999Z,17.50
2022-12-11T19:31:20.981Z,19.80
2022-12-11T19:33:50.347Z,16.30
2022-12-11T19:36:22.461Z,15.40
2022-12-11T19:39:09.826Z,15.70
2022-12-11T19:41:55.013Z,13.10
2022-12-11T19:44:23.336Z,11.10
2022-12-11T19:47:06.013Z,13.00
2022-12-11T19:49:34.398Z,13.20
2022-12-11T19:52:16.588Z,13.10
2022-12-11T19:54:45.402Z,12.90
2022-12-11T19:57:13.957Z,13.40
2022-12-11T19:59:42.491Z,11.40
2022-12-11T20:02:14.428Z,10.90
2022-12-11T20:04:56.800Z,10.50
2022-12-11T20:07:30.523Z,12.60
2022-12-11T20:10:00.805Z,12.60
2022-12-11T20:12:29.834Z,6.70
2022-12-11T20:14:58.915Z,11.60
2022-12-11T20:17:27.587Z,13.20
2022-12-11T20:19:56.459Z,12.00
2022-12-11T20:22:25.272Z,19.10
2022-12-11T20:25:07.825Z,13.90
2022-12-11T20:27:50.702Z,13.20
2022-12-11T20:30:19.908Z,12.50
2022-12-11T20:32:49.211Z,16.50
2022-12-11T20:35:18.775Z,13.60
2022-12-11T20:37:47.782Z,13.40
2022-12-11T20:40:17.423Z,13.40
2022-12-11T20:42:46.317Z,12.70
2022-12-11T20:45:28.626Z,14.30
2022-12-11T20:47:56.990Z,14.20
2022-12-11T20:50:39.721Z,16.30
2022-12-11T20:53:21.938Z,16.70
2022-12-11T20:55:53.468Z,16.00
2022-12-11T20:58:22.948Z,17.30
2022-12-11T21:00:51.850Z,24.20
2022-12-11T21:03:20.549Z,19.80
2022-12-11T21:05:49.117Z,19.80
2022-12-11T21:08:17.944Z,21.70
2022-12-11T21:10:46.967Z,18.00
2022-12-11T21:13:16.999Z,23.00
2022-12-11T21:15:46.319Z,17.60
2022-12-11T21:18:15.221Z,21.60
2022-12-11T21:20:43.635Z,16.10
2022-12-11T21:23:12.366Z,19.30
2022-12-11T21:25:41.878Z,19.30
2022-12-11T21:28:10.982Z,18.90
2022-12-11T21:30:41.711Z,27.20
2022-12-11T21:33:23.991Z,25.40
2022-12-11T21:35:57.840Z,17.00
2022-12-11T21:38:41.961Z,15.40
2022-12-11T21:41:17.855Z,17.60
2022-12-11T21:46:52.620Z,26.00
2022-12-11T21:49:22.464Z,17.40
2022-12-11T21:51:51.698Z,22.70
2022-12-11T21:54:34.068Z,20.80
2022-12-11T21:57:20.045Z,18.20
2022-12-11T21:59:52.897Z,18.30
2022-12-11T22:02:22.421Z,17.70
2022-12-11T22:05:05.924Z,21.00
2022-12-11T22:07:48.797Z,21.20
2022-12-11T22:10:17.844Z,21.90
2022-12-11T22:12:46.649Z,23.30
2022-12-11T22:15:28.990Z,20.00
2022-12-11T22:18:11.337Z,23.00
2022-12-11T22:20:40.080Z,21.80
2022-12-11T22:23:23.259Z,22.10
2022-12-11T22:26:07.664Z,21.10
2022-12-11T22:28:37.019Z,20.90
2022-12-11T22:31:22.964Z,23.00
2022-12-11T22:34:05.836Z,17.70
2022-12-11T22:36:34.827Z,26.90
2022-12-11T22:39:17.434Z,19.40
2022-12-11T22:41:46.317Z,22.70
2022-12-11T22:44:17.530Z,19.70
2022-12-11T22:46:49.925Z,23.10
2022-12-11T22:49:20.777Z,23.70
2022-12-11T22:51:50.473Z,21.30
2022-12-11T22:54:19.111Z,19.70
2022-12-11T22:56:47.703Z,21.40
2022-12-11T22:59:30.124Z,18.70
2022-12-11T23:01:58.970Z,18.10
2022-12-11T23:04:41.658Z,18.90
2022-12-11T23:07:11.362Z,20.30
2022-12-11T23:09:53.695Z,18.20
2022-12-11T23:12:24.225Z,23.40
2022-12-11T23:14:53.042Z,20.40
2022-12-11T23:17:22.101Z,15.90
2022-12-11T23:20:06.030Z,22.20
2022-12-11T23:22:35.044Z,18.20
2022-12-11T23:25:18.173Z,22.90
2022-12-11T23:27:47.365Z,17.50
2022-12-11T23:30:30.118Z,20.10
2022-12-11T23:33:12.592Z,22.50
2022-12-11T23:35:41.690Z,21.90
2022-12-11T23:38:23.958Z,13.40
2022-12-11T23:41:09.888Z,17.40
2022-12-11T23:43:52.643Z,17.40
2022-12-11T23:46:23.893Z,18.90
2022-12-11T23:49:06.584Z,16.70
2022-12-11T23:51:35.203Z,14.90
2022-12-11T23:54:17.619Z,18.80
2022-12-11T23:56:46.242Z,21.30
2022-12-11T23:59:15.825Z,18.70
